ADDS METAR Data INFO
IDs: Format: Raw Decoded Include TAF

Data at: 0926 UTC 17 Oct 2017

KSBD 170918Z AUTO 09003KT 10SM CLR 16/M04 A3004 RMK AO2 T01631041
KSBD 170859Z AUTO 08003KT 10SM CLR 19/M04 A3005 RMK AO2 T01881040
KSBD 170839Z AUTO 07003KT 10SM CLR 19/M04 A3005 RMK AO2 T01901044
KSBD 170818Z AUTO 00000KT 10SM CLR 20/M05 A3005 RMK AO2 T01991051
KSBD 170759Z AUTO 00000KT 10SM CLR 20/M05 A3006 RMK AO2 T01951053
KSBD 170738Z AUTO 13006KT 10SM CLR 22/M04 A3006 RMK AO2 T02171042
KSBD 170719Z AUTO 14004KT 10SM CLR 20/M04 A3006 RMK AO2 T01991044
KSBD 170658Z AUTO 07003KT 10SM CLR 21/M05 A3007 RMK AO2 T02091048
KSBD 170639Z AUTO 12005KT 10SM CLR 22/M04 A3007 RMK AO2 T02181042
KSBD 170619Z AUTO 12003KT 10SM CLR 23/M04 A3007 RMK AO2 T02271042
KSBD 170558Z AUTO 14003KT 10SM CLR 24/M04 A3007 RMK AO2 T02351040
KSBD 170539Z AUTO 13003KT 10SM CLR 24/M04 A3007 RMK AO2 T02421038
KSBD 170519Z AUTO 00000KT 10SM CLR 23/M05 A3007 RMK AO2 T02311047
KSBD 170458Z AUTO 14006KT 10SM CLR 25/M04 A3007 RMK AO2 T02501040
KSBD 170439Z AUTO 11004KT 10SM CLR 25/M04 A3006 RMK AO2 T02531038
KSBD 170350Z 00000KT 7SM SKC 23/M06 A3004 RMK LAST
KSBD 170250Z 26007KT 7SM SKC 28/M08 A3003
KSBD 170150Z 28007KT 7SM SKC 31/M07 A3001
KSBD 170050Z 30005KT 7SM SKC 34/M06 A2999
KSBD 162350Z 31009KT 07SM FEW150 36/M05 A2999
KSBD 162250Z 29007KT 07SM FEW150 37/M04 A3000
KSBD 162150Z 28011KT 7SM FEW150 38/M03 A3001
KSBD 162050Z 27010KT 7SM FEW150 38/M03 A3003
KSBD 161950Z 00000KT 10SM FEW150 36/M06 A3006
KSBD 161850Z 00000KT 10SM FEW150 35/M08 A3009
KSBD 161750Z 00000KT 10SM FEW150 32/M07 A3012
KSBD 161445Z 00000KT 10SM FEW100 18/M06 A3012
KSBD 161400Z 00000KT 10SM FEW100 15/M04 A3012
KSBD 161239Z AUTO 07005KT 10SM CLR 16/M07 A3011 RMK AO2 T01561072
KSBD 161219Z AUTO 06003KT 10SM CLR 16/M06 A3010 RMK AO2 T01611058
KSBD 161158Z AUTO 00000KT 10SM CLR 17/M07 A3010 RMK AO2 T01691071
KSBD 161139Z AUTO 13003KT 10SM CLR 17/M07 A3010 RMK AO2 T01721069
KSBD 161119Z AUTO 00000KT 10SM CLR 15/M08 A3010 RMK AO2 T01531078
KSBD 161058Z AUTO 07006KT 10SM CLR 15/M08 A3011 RMK AO2 T01491085
KSBD 161039Z AUTO 07004KT 10SM CLR 16/M09 A3011 RMK AO2 T01601086
KSBD 161019Z AUTO 06006KT 10SM CLR 15/M08 A3011 RMK AO2 T01481084
KSBD 160958Z AUTO 10003KT 10SM CLR 17/M08 A3012 RMK AO2 T01651077
KSBD 160939Z AUTO 07004KT 10SM CLR 16/M09 A3012 RMK AO2 T01551087
KSBD 160918Z AUTO 08003KT 10SM CLR 15/M08 A3012 RMK AO2 T01541079
KSBD 160859Z AUTO 12003KT 10SM CLR 17/M08 A3012 RMK AO2 T01651077
KSBD 160839Z AUTO 13004KT 10SM CLR 17/M07 A3012 RMK AO2 T01701073
KSBD 160818Z AUTO 08003KT 10SM CLR 16/M08 A3012 RMK AO2 T01571084
KSBD 160759Z AUTO 12003KT 10SM CLR 19/M07 A3012 RMK AO2 T01851067
KSBD 160739Z AUTO 11004KT 10SM CLR 19/M06 A3012 RMK AO2 T01911065
KSBD 160718Z AUTO 00000KT 10SM CLR 18/M08 A3013 RMK AO2 T01831079
KSBD 160659Z AUTO 00000KT 10SM CLR 18/M08 A3013 RMK AO2 T01801082
KSBD 160638Z AUTO 08003KT 10SM CLR 18/M09 A3013 RMK AO2 T01781087
KSBD 160619Z AUTO 12004KT 10SM CLR 20/M07 A3013 RMK AO2 T01951073
KSBD 160559Z AUTO 00000KT 10SM CLR 21/M08 A3014 RMK AO2 T02061081
KSBD 160538Z AUTO 00000KT 10SM CLR 20/M09 A3013 RMK AO2 T02001087
KSBD 160519Z AUTO 00000KT 10SM CLR 21/M08 A3013 RMK AO2 T02131077
KSBD 160459Z AUTO 00000KT 10SM CLR 20/M08 A3013 RMK AO2 T01951080
KSBD 160438Z AUTO 09003KT 10SM CLR 21/M08 A3013 RMK AO2 T02101081
KSBD 160350Z 00000KT 10SM SKC 22/M08 A3011 RMK LAST
KSBD 160250Z 00000KT 10SM SKC 25/M08 A3009
KSBD 160150Z 31005KT 10SM SKC 29/M08 A3006
KSBD 160050Z 31004KT 10SM SKC 32/M08 A3004
KSBD 152350Z 32005KT 10SM SKC 34/M08 A3005
KSBD 152250Z 26008KT 10SM SKC 35/M07 A3005
KSBD 152150Z 24004KT 10SM SKC 30/M07 A3006